Time;durP1;ratioP1;P1;durP2;ratioP2;P2;SDS_P1;SDS_P2;PMS_P1;PMS_P2;Temp;Humidity;BMP_temperature;BMP_pressure;BME280_temperature;BME280_humidity;BME280_pressure;Samples;Min_cycle;Max_cycle;Signal;HPM_P1;HPM_P2
2023/08/11 00:00:30;;;;;;;14.98;7.57;;;;;;;;;;6245480;28;20302;-76
2023/08/11 00:03:30;;;;;;;17.90;8.27;;;;;;;;;;6241570;28;20022;-77
2023/08/11 00:06:30;;;;;;;14.20;6.57;;;;;;;;;;6245800;28;20052;-77
2023/08/11 00:09:31;;;;;;;8.30;5.33;;;;;;;;;;6245686;28;20017;-77
2023/08/11 00:12:32;;;;;;;12.30;6.40;;;;;;;;;;6247048;28;20026;-77
2023/08/11 00:15:39;;;;;;;9.73;5.53;;;;;;;;;;6245421;28;20047;-77
2023/08/11 00:18:42;;;;;;;13.15;5.28;;;;;;;;;;6243221;28;20542;-77
2023/08/11 00:21:43;;;;;;;10.48;4.70;;;;;;;;;;6235209;28;20029;-77
2023/08/11 00:24:43;;;;;;;15.55;6.60;;;;;;;;;;6250081;28;20029;-77
2023/08/11 00:27:43;;;;;;;13.37;6.43;;;;;;;;;;6242749;28;20318;-77
2023/08/11 00:30:43;;;;;;;17.38;6.55;;;;;;;;;;6244062;28;20272;-77
2023/08/11 00:33:46;;;;;;;18.08;7.63;;;;;;;;;;6246392;28;20041;-77
2023/08/11 00:36:46;;;;;;;15.27;6.07;;;;;;;;;;6244715;28;20099;-77
2023/08/11 00:39:47;;;;;;;17.45;6.88;;;;;;;;;;6245586;28;20472;-77
2023/08/11 00:42:49;;;;;;;11.52;7.25;;;;;;;;;;6245110;28;20009;-77
2023/08/11 00:45:49;;;;;;;15.85;8.45;;;;;;;;;;6219954;28;20698;-78
2023/08/11 00:48:51;;;;;;;17.00;7.87;;;;;;;;;;6229926;28;20065;-77
2023/08/11 00:51:52;;;;;;;16.58;8.02;;;;;;;;;;6220387;28;20265;-77
2023/08/11 00:54:53;;;;;;;15.67;8.27;;;;;;;;;;6220368;28;20439;-77
2023/08/11 00:57:54;;;;;;;17.92;7.65;;;;;;;;;;6219773;28;20559;-78
2023/08/11 01:00:54;;;;;;;17.85;8.57;;;;;;;;;;6216866;28;20021;-77
2023/08/11 01:03:54;;;;;;;18.17;7.53;;;;;;;;;;6220658;28;20025;-76
2023/08/11 01:07:04;;;;;;;15.75;7.93;;;;;;;;;;6220701;28;20024;-76
2023/08/11 01:10:07;;;;;;;18.88;7.10;;;;;;;;;;6216484;28;20030;-77
2023/08/11 01:13:13;;;;;;;18.38;7.50;;;;;;;;;;6220601;28;20075;-77
2023/08/11 01:16:15;;;;;;;13.00;8.73;;;;;;;;;;6220182;28;20731;-77
2023/08/11 01:19:24;;;;;;;15.13;7.65;;;;;;;;;;6224332;28;20029;-77
2023/08/11 01:22:28;;;;;;;17.65;7.70;;;;;;;;;;6209971;28;20029;-76
2023/08/11 01:25:28;;;;;;;26.77;9.35;;;;;;;;;;6219430;28;20032;-76
2023/08/11 01:28:28;;;;;;;21.90;8.35;;;;;;;;;;6224311;28;20021;-76
2023/08/11 01:31:28;;;;;;;16.87;8.20;;;;;;;;;;6219320;28;20059;-76
2023/08/11 01:34:29;;;;;;;16.00;8.33;;;;;;;;;;6219477;28;20751;-76
2023/08/11 01:37:30;;;;;;;17.55;7.95;;;;;;;;;;6218623;28;20288;-76
2023/08/11 01:40:31;;;;;;;13.65;7.88;;;;;;;;;;6201477;28;20491;-77
2023/08/11 01:43:33;;;;;;;14.80;8.32;;;;;;;;;;6217572;28;20025;-77
2023/08/11 01:46:33;;;;;;;17.13;8.18;;;;;;;;;;6210925;28;20424;-77
2023/08/11 01:49:34;;;;;;;14.93;8.55;;;;;;;;;;6239035;28;20049;-77
2023/08/11 01:52:36;;;;;;;14.73;7.53;;;;;;;;;;6243529;28;20017;-77
2023/08/11 01:55:36;;;;;;;;;;;;;;;;;;6243817;28;20080;-77
2023/08/11 01:58:36;;;;;;;17.27;7.60;;;;;;;;;;6242758;28;20393;-76
2023/08/11 02:01:38;;;;;;;17.48;7.30;;;;;;;;;;6238130;28;20056;-76
2023/08/11 02:04:38;;;;;;;16.45;8.10;;;;;;;;;;6248288;28;20095;-77
2023/08/11 02:07:39;;;;;;;17.27;7.23;;;;;;;;;;6246331;28;20857;-76
2023/08/11 02:10:40;;;;;;;16.00;6.97;;;;;;;;;;6243720;28;20029;-76
2023/08/11 02:13:41;;;;;;;14.93;7.43;;;;;;;;;;6243262;28;20059;-76
2023/08/11 02:16:41;;;;;;;15.40;7.85;;;;;;;;;;6225454;28;20474;-76
2023/08/11 02:19:41;;;;;;;15.00;9.07;;;;;;;;;;6230365;28;20052;-76
2023/08/11 02:22:42;;;;;;;14.52;8.27;;;;;;;;;;6243028;28;20024;-76
2023/08/11 02:25:42;;;;;;;16.33;7.97;;;;;;;;;;6237548;28;20026;-76
2023/08/11 02:28:42;;;;;;;14.98;8.48;;;;;;;;;;6245637;28;20036;-76
2023/08/11 02:31:43;;;;;;;17.43;8.73;;;;;;;;;;6243135;28;20039;-76
2023/08/11 02:34:44;;;;;;;11.93;7.88;;;;;;;;;;6243613;28;20025;-76
2023/08/11 02:37:44;;;;;;;13.70;8.27;;;;;;;;;;6224620;28;20037;-76
2023/08/11 02:40:45;;;;;;;17.33;9.15;;;;;;;;;;6224996;28;20068;-76
2023/08/11 02:43:45;;;;;;;14.45;7.68;;;;;;;;;;6236251;28;20025;-76
2023/08/11 02:46:46;;;;;;;16.67;7.70;;;;;;;;;;6242421;28;20056;-76
2023/08/11 02:49:46;;;;;;;15.50;8.47;;;;;;;;;;6242325;28;20411;-76
2023/08/11 02:52:48;;;;;;;13.17;8.67;;;;;;;;;;6241445;28;20472;-76
2023/08/11 02:55:48;;;;;;;12.77;7.65;;;;;;;;;;6239528;28;20259;-76
2023/08/11 02:58:49;;;;;;;14.70;7.87;;;;;;;;;;6242764;28;20041;-76
2023/08/11 03:01:49;;;;;;;21.30;12.23;;;;;;;;;;6241259;28;20021;-77
2023/08/11 03:04:50;;;;;;;17.90;9.27;;;;;;;;;;6244055;28;20051;-77
2023/08/11 03:07:50;;;;;;;16.00;9.30;;;;;;;;;;6220733;28;20036;-78
2023/08/11 03:10:50;;;;;;;10.98;6.72;;;;;;;;;;6242391;28;20104;-77
2023/08/11 03:13:50;;;;;;;19.30;8.70;;;;;;;;;;6242478;28;20711;-77
2023/08/11 03:16:51;;;;;;;14.05;8.18;;;;;;;;;;6242064;28;20037;-77
2023/08/11 03:19:51;;;;;;;17.97;9.13;;;;;;;;;;6241942;28;20480;-76
2023/08/11 03:22:51;;;;;;;14.97;8.97;;;;;;;;;;6241822;28;20087;-77
2023/08/11 03:25:52;;;;;;;16.67;9.00;;;;;;;;;;6222194;28;20017;-77
2023/08/11 03:28:52;;;;;;;16.45;10.85;;;;;;;;;;6245909;28;20272;-76
2023/08/11 03:31:52;;;;;;;14.30;8.93;;;;;;;;;;6241568;28;20128;-76
2023/08/11 03:34:53;;;;;;;18.45;10.18;;;;;;;;;;6241289;28;20425;-76
2023/08/11 03:37:54;;;;;;;14.73;10.15;;;;;;;;;;6224105;28;20403;-76
2023/08/11 03:40:54;;;;;;;15.23;9.48;;;;;;;;;;6223274;28;20075;-76
2023/08/11 03:43:55;;;;;;;17.00;10.68;;;;;;;;;;6242081;28;20017;-77
2023/08/11 03:46:55;;;;;;;14.88;8.40;;;;;;;;;;6223592;28;20051;-77
2023/08/11 03:49:56;;;;;;;18.37;9.40;;;;;;;;;;6241342;28;20107;-76
2023/08/11 03:52:56;;;;;;;16.67;8.73;;;;;;;;;;6241738;28;20075;-76
2023/08/11 03:55:57;;;;;;;14.38;8.88;;;;;;;;;;6247315;28;20857;-76
2023/08/11 03:58:57;;;;;;;15.13;9.38;;;;;;;;;;6241676;28;20045;-76
2023/08/11 04:01:58;;;;;;;17.80;9.55;;;;;;;;;;6224006;28;20033;-76
2023/08/11 04:04:58;;;;;;;21.10;10.48;;;;;;;;;;6224632;28;20148;-76
2023/08/11 04:07:58;;;;;;;20.90;10.80;;;;;;;;;;6244266;28;20033;-76
2023/08/11 04:10:58;;;;;;;14.20;9.75;;;;;;;;;;6246088;28;20737;-76
2023/08/11 04:13:59;;;;;;;15.83;10.73;;;;;;;;;;6245582;28;20021;-76
2023/08/11 04:17:00;;;;;;;20.92;11.73;;;;;;;;;;6245861;28;20018;-76
2023/08/11 04:20:00;;;;;;;19.08;12.65;;;;;;;;;;6247263;28;20422;-76
2023/08/11 04:23:01;;;;;;;18.67;11.90;;;;;;;;;;6246202;28;20029;-76
2023/08/11 04:26:01;;;;;;;20.42;14.25;;;;;;;;;;6247518;28;20045;-77
2023/08/11 04:29:03;;;;;;;19.90;13.10;;;;;;;;;;6249906;28;20022;-76
2023/08/11 04:32:04;;;;;;;;;;;;;;;;;;6245321;28;20033;-76
2023/08/11 04:35:08;;;;;;;19.63;11.60;;;;;;;;;;6245819;28;19909;-76
2023/08/11 04:38:09;;;;;;;18.15;12.18;;;;;;;;;;6228454;28;20033;-76
2023/08/11 04:41:09;;;;;;;18.47;13.13;;;;;;;;;;6245178;28;20537;-76
2023/08/11 04:44:09;;;;;;;19.23;13.48;;;;;;;;;;6239424;28;20268;-76
2023/08/11 04:47:09;;;;;;;18.63;12.65;;;;;;;;;;6244403;28;20403;-76
2023/08/11 04:50:11;;;;;;;21.13;14.20;;;;;;;;;;6245010;28;20458;-77
2023/08/11 04:53:13;;;;;;;19.77;13.60;;;;;;;;;;6245860;28;20055;-76
2023/08/11 04:56:13;;;;;;;18.90;13.23;;;;;;;;;;6242801;28;20029;-76
2023/08/11 04:59:14;;;;;;;17.60;13.30;;;;;;;;;;6244448;28;20048;-77
2023/08/11 05:02:14;;;;;;;18.90;10.43;;;;;;;;;;6245735;28;20094;-77
2023/08/11 05:05:14;;;;;;;13.95;10.35;;;;;;;;;;6245771;28;20438;-77
2023/08/11 05:08:14;;;;;;;14.10;10.70;;;;;;;;;;6249293;28;20108;-77
2023/08/11 05:11:15;;;;;;;16.42;9.38;;;;;;;;;;6247315;28;20032;-77
2023/08/11 05:14:16;;;;;;;15.80;9.80;;;;;;;;;;6244402;28;20029;-77
2023/08/11 05:17:16;;;;;;;16.30;8.65;;;;;;;;;;6225951;28;20095;-77
2023/08/11 05:20:17;;;;;;;13.07;8.45;;;;;;;;;;6246267;28;20029;-77
2023/08/11 05:23:17;;;;;;;16.83;9.40;;;;;;;;;;6244448;28;20025;-77
2023/08/11 05:26:17;;;;;;;17.47;9.53;;;;;;;;;;6249934;28;20159;-77
2023/08/11 05:29:18;;;;;;;17.33;9.83;;;;;;;;;;6249705;28;20829;-77
2023/08/11 05:32:18;;;;;;;14.57;8.53;;;;;;;;;;6244089;28;20026;-77
2023/08/11 05:35:18;;;;;;;14.93;9.10;;;;;;;;;;6243717;28;20056;-77
2023/08/11 05:38:20;;;;;;;12.93;9.13;;;;;;;;;;6244235;28;20383;-78
2023/08/11 05:41:20;;;;;;;16.85;9.07;;;;;;;;;;6244679;28;20480;-79
2023/08/11 05:44:21;;;;;;;11.37;8.03;;;;;;;;;;6240582;28;20093;-78
2023/08/11 05:47:21;;;;;;;15.33;8.97;;;;;;;;;;6241639;28;20029;-78
2023/08/11 05:50:21;;;;;;;14.10;9.13;;;;;;;;;;6243966;28;20025;-78
2023/08/11 05:53:21;;;;;;;17.10;8.57;;;;;;;;;;6238863;28;20475;-79
2023/08/11 05:56:21;;;;;;;14.07;8.65;;;;;;;;;;6222475;28;20025;-78
2023/08/11 05:59:21;;;;;;;13.20;8.47;;;;;;;;;;6225182;28;20495;-79
2023/08/11 06:02:22;;;;;;;15.25;9.13;;;;;;;;;;6242703;28;20022;-78
2023/08/11 06:05:23;;;;;;;9.67;6.97;;;;;;;;;;6225890;28;20044;-78
2023/08/11 06:08:23;;;;;;;;;;;;;;;;;;6245075;28;20144;-77
2023/08/11 06:11:24;;;;;;;11.65;6.90;;;;;;;;;;6243588;28;19938;-79
2023/08/11 06:14:24;;;;;;;15.13;6.57;;;;;;;;;;6224967;28;20030;-78
2023/08/11 06:17:26;;;;;;;13.25;7.30;;;;;;;;;;6242090;28;20021;-78
2023/08/11 06:20:27;;;;;;;16.35;7.07;;;;;;;;;;6248252;28;20026;-77
2023/08/11 06:23:27;;;;;;;15.32;7.10;;;;;;;;;;6242851;28;20025;-78
2023/08/11 06:26:27;;;;;;;10.52;6.60;;;;;;;;;;6244839;28;20395;-78
2023/08/11 06:29:28;;;;;;;13.13;7.70;;;;;;;;;;6248934;28;20112;-78
2023/08/11 06:32:28;;;;;;;11.27;7.33;;;;;;;;;;6220574;28;20472;-77
2023/08/11 06:35:29;;;;;;;11.30;7.50;;;;;;;;;;6242775;28;20113;-78
2023/08/11 06:38:30;;;;;;;11.13;7.23;;;;;;;;;;6242840;28;20025;-78
2023/08/11 06:41:31;;;;;;;;;;;;;;;;;;6226033;28;20028;-78
2023/08/11 06:44:32;;;;;;;15.48;6.28;;;;;;;;;;6242635;28;19913;-78
2023/08/11 06:47:33;;;;;;;9.25;6.32;;;;;;;;;;6224258;28;20455;-77
2023/08/11 06:50:34;;;;;;;10.13;5.32;;;;;;;;;;6242787;28;20041;-77
2023/08/11 06:53:35;;;;;;;12.83;6.63;;;;;;;;;;6241508;28;20029;-77
2023/08/11 06:56:36;;;;;;;11.27;5.90;;;;;;;;;;6241202;28;20025;-77
2023/08/11 06:59:36;;;;;;;9.38;5.97;;;;;;;;;;6223411;28;20083;-77
2023/08/11 07:02:36;;;;;;;9.73;5.80;;;;;;;;;;6240502;28;20543;-77
2023/08/11 07:05:36;;;;;;;13.37;6.23;;;;;;;;;;6239195;28;20021;-77
2023/08/11 07:08:37;;;;;;;10.40;5.53;;;;;;;;;;6242709;28;20032;-76
2023/08/11 07:11:37;;;;;;;12.70;5.37;;;;;;;;;;6239933;28;20100;-77
2023/08/11 07:14:37;;;;;;;12.03;5.30;;;;;;;;;;6233869;28;20558;-76
2023/08/11 07:17:37;;;;;;;9.67;5.07;;;;;;;;;;6238955;28;20033;-76
2023/08/11 07:20:44;;;;;;;7.20;4.33;;;;;;;;;;6241086;28;20470;-76
2023/08/11 07:23:44;;;;;;;11.32;5.18;;;;;;;;;;6241106;28;20398;-76
2023/08/11 07:26:44;;;;;;;13.07;5.32;;;;;;;;;;6223789;28;20017;-76
2023/08/11 07:29:44;;;;;;;7.65;4.47;;;;;;;;;;6247729;28;20053;-76
2023/08/11 07:32:44;;;;;;;12.50;4.77;;;;;;;;;;6240488;28;20032;-75
2023/08/11 07:35:44;;;;;;;7.50;3.80;;;;;;;;;;6239329;28;20053;-77
2023/08/11 07:38:45;;;;;;;9.18;4.45;;;;;;;;;;6223951;28;20017;-75
2023/08/11 07:41:45;;;;;;;10.17;4.03;;;;;;;;;;6246804;28;20025;-75
2023/08/11 07:44:45;;;;;;;8.87;4.73;;;;;;;;;;6246349;28;20092;-75
2023/08/11 07:47:46;;;;;;;10.50;4.90;;;;;;;;;;6248702;28;20049;-75
2023/08/11 07:50:47;;;;;;;9.70;4.63;;;;;;;;;;6223059;28;20032;-75
2023/08/11 07:53:47;;;;;;;11.00;4.55;;;;;;;;;;6227057;28;20292;-75
2023/08/11 07:56:47;;;;;;;8.77;4.03;;;;;;;;;;6245754;28;20538;-76
2023/08/11 07:59:48;;;;;;;8.03;3.90;;;;;;;;;;6243729;28;20045;-75
2023/08/11 08:02:48;;;;;;;11.50;4.77;;;;;;;;;;6228208;28;20017;-75
2023/08/11 08:05:48;;;;;;;8.90;4.03;;;;;;;;;;6245487;28;20387;-75
2023/08/11 08:08:48;;;;;;;7.97;3.60;;;;;;;;;;6248225;28;20101;-75
2023/08/11 08:11:50;;;;;;;8.20;3.97;;;;;;;;;;6245217;28;20025;-75
2023/08/11 08:14:50;;;;;;;6.97;3.25;;;;;;;;;;6229474;28;20037;-75
2023/08/11 08:17:50;;;;;;;6.17;3.90;;;;;;;;;;6245740;28;20503;-75
2023/08/11 08:20:50;;;;;;;9.23;3.70;;;;;;;;;;6242930;28;20022;-75
2023/08/11 08:23:51;;;;;;;8.60;4.13;;;;;;;;;;6243579;28;20036;-75
2023/08/11 08:26:51;;;;;;;11.73;4.67;;;;;;;;;;6243473;28;20797;-75
2023/08/11 08:29:52;;;;;;;10.53;3.47;;;;;;;;;;6245723;28;20279;-75
2023/08/11 08:32:52;;;;;;;;;;;;;;;;;;6246753;28;20033;-75
2023/08/11 08:35:53;;;;;;;7.63;4.05;;;;;;;;;;6244272;28;19967;-75
2023/08/11 08:38:53;;;;;;;7.70;3.38;;;;;;;;;;6236676;28;20099;-75
2023/08/11 08:41:54;;;;;;;7.83;3.73;;;;;;;;;;6243751;28;20037;-75
2023/08/11 08:44:54;;;;;;;7.60;3.92;;;;;;;;;;6241056;28;20124;-74
2023/08/11 08:47:55;;;;;;;6.30;3.80;;;;;;;;;;6238291;28;20472;-75
2023/08/11 08:50:55;;;;;;;5.68;2.67;;;;;;;;;;6244391;28;20481;-75
2023/08/11 08:53:56;;;;;;;8.87;3.00;;;;;;;;;;6244442;28;20045;-75
2023/08/11 08:56:58;;;;;;;3.65;2.40;;;;;;;;;;6238612;28;20033;-75
2023/08/11 08:59:58;;;;;;;5.57;2.53;;;;;;;;;;6239157;28;20072;-75
2023/08/11 09:03:00;;;;;;;6.13;2.37;;;;;;;;;;6243263;28;20033;-75
2023/08/11 09:06:00;;;;;;;;;;;;;;;;;;6242586;28;20117;-75
2023/08/11 09:09:00;;;;;;;6.30;2.80;;;;;;;;;;6223997;28;20005;-75
2023/08/11 09:12:00;;;;;;;4.13;2.22;;;;;;;;;;6241803;28;20021;-75
2023/08/11 09:15:11;;;;;;;5.10;2.63;;;;;;;;;;6243426;28;20018;-75
2023/08/11 09:18:16;;;;;;;5.35;2.80;;;;;;;;;;6246276;28;20025;-75
2023/08/11 09:21:16;;;;;;;5.57;2.85;;;;;;;;;;6242715;28;20454;-75
2023/08/11 09:24:17;;;;;;;5.63;2.72;;;;;;;;;;6238822;28;20036;-75
2023/08/11 09:27:17;;;;;;;5.60;2.30;;;;;;;;;;6241263;28;20034;-75
2023/08/11 09:30:19;;;;;;;4.80;1.77;;;;;;;;;;6242865;28;20029;-75
2023/08/11 09:33:24;;;;;;;3.50;1.88;;;;;;;;;;6242226;28;20026;-75
2023/08/11 09:36:24;;;;;;;4.63;2.20;;;;;;;;;;6236686;28;20110;-75
2023/08/11 09:39:26;;;;;;;3.37;2.17;;;;;;;;;;6228086;28;20495;-75
2023/08/11 09:42:27;;;;;;;5.85;2.63;;;;;;;;;;6244924;28;20445;-75
2023/08/11 09:45:29;;;;;;;6.97;2.40;;;;;;;;;;6225613;28;20104;-75
2023/08/11 09:48:31;;;;;;;3.88;1.75;;;;;;;;;;6223930;28;20141;-75
2023/08/11 09:51:32;;;;;;;6.03;2.60;;;;;;;;;;6243678;28;20079;-74
2023/08/11 09:54:32;;;;;;;;;;;;;;;;;;6242875;28;20164;-75
2023/08/11 09:57:42;;;;;;;7.25;2.47;;;;;;;;;;6246728;28;19928;-75
2023/08/11 10:00:46;;;;;;;3.70;2.03;;;;;;;;;;6242401;28;20041;-75
2023/08/11 10:03:47;;;;;;;2.47;1.67;;;;;;;;;;6240455;28;20071;-75
2023/08/11 10:06:49;;;;;;;3.63;1.92;;;;;;;;;;6242132;28;20032;-75
2023/08/11 10:09:51;;;;;;;4.80;2.13;;;;;;;;;;6241603;28;20022;-75
2023/08/11 10:12:56;;;;;;;5.60;2.15;;;;;;;;;;6245455;28;20014;-75
2023/08/11 10:15:57;;;;;;;5.10;2.10;;;;;;;;;;6233115;28;20086;-74
2023/08/11 10:18:57;;;;;;;2.40;1.80;;;;;;;;;;6245774;28;20033;-75
2023/08/11 10:21:58;;;;;;;6.13;2.58;;;;;;;;;;6236814;28;20781;-75
2023/08/11 10:25:00;;;;;;;4.07;2.08;;;;;;;;;;6236099;28;20125;-75
2023/08/11 10:28:01;;;;;;;3.55;2.05;;;;;;;;;;6240391;28;20053;-75
2023/08/11 10:31:02;;;;;;;;;;;;;;;;;;6241622;28;20068;-75
2023/08/11 10:34:02;;;;;;;;;;;;;;;;;;6241189;28;19924;-75
2023/08/11 10:37:02;;;;;;;3.00;2.10;;;;;;;;;;6227134;28;19912;-81
2023/08/11 10:40:03;;;;;;;;;;;;;;;;;;6230452;28;20020;-81
2023/08/11 10:43:04;;;;;;;4.32;1.70;;;;;;;;;;6245749;28;20532;-81
2023/08/11 10:46:23;;;;;;;4.00;2.15;;;;;;;;;;6242418;28;20137;-80
2023/08/11 10:49:32;;;;;;;3.08;1.67;;;;;;;;;;6241475;28;20053;-81
2023/08/11 10:52:34;;;;;;;2.60;1.50;;;;;;;;;;6242006;28;20017;-81
2023/08/11 10:55:38;;;;;;;2.75;1.80;;;;;;;;;;6245745;28;20029;-81
2023/08/11 10:58:38;;;;;;;3.65;1.83;;;;;;;;;;6240070;28;20669;-80
2023/08/11 11:01:42;;;;;;;2.67;1.80;;;;;;;;;;6239209;28;20021;-81
2023/08/11 11:04:44;;;;;;;2.53;1.60;;;;;;;;;;6243377;28;20419;-82
2023/08/11 11:07:44;;;;;;;4.53;2.20;;;;;;;;;;6242372;28;20447;-81
2023/08/11 11:10:45;;;;;;;4.80;1.90;;;;;;;;;;6242603;28;20025;-81
2023/08/11 11:13:46;;;;;;;5.95;1.95;;;;;;;;;;6242960;28;20009;-80
2023/08/11 11:16:46;;;;;;;;;;;;;;;;;;6245746;28;20036;-81
2023/08/11 11:19:47;;;;;;;4.43;1.95;;;;;;;;;;6225085;28;19983;-80
2023/08/11 11:22:48;;;;;;;;;;;;;;;;;;6247465;28;20045;-81
2023/08/11 11:25:50;;;;;;;4.43;1.80;;;;;;;;;;6246691;28;19909;-80
2023/08/11 11:28:52;;;;;;;4.25;2.30;;;;;;;;;;6244508;28;20021;-82
2023/08/11 11:31:53;;;;;;;4.68;1.90;;;;;;;;;;6246009;28;20014;-82
2023/08/11 11:34:54;;;;;;;1.98;1.55;;;;;;;;;;6246500;28;20022;-81
2023/08/11 11:37:54;;;;;;;;;;;;;;;;;;6246744;28;20161;-81
2023/08/11 11:40:54;;;;;;;3.45;2.22;;;;;;;;;;6250438;28;19963;-81
2023/08/11 11:43:56;;;;;;;5.77;2.33;;;;;;;;;;6237332;28;20349;-80
2023/08/11 11:46:56;;;;;;;3.63;2.15;;;;;;;;;;6241607;28;20022;-80
2023/08/11 11:49:56;;;;;;;;;;;;;;;;;;6243102;28;20056;-80
2023/08/11 11:52:57;;;;;;;5.78;1.55;;;;;;;;;;6246099;28;19912;-80
2023/08/11 11:55:57;;;;;;;;;;;;;;;;;;6225121;28;20095;-81
2023/08/11 11:58:58;;;;;;;5.50;2.30;;;;;;;;;;6242698;28;19917;-81
2023/08/11 12:02:00;;;;;;;4.80;2.00;;;;;;;;;;6230888;28;20032;-81
2023/08/11 12:05:00;;;;;;;2.10;1.70;;;;;;;;;;6243544;28;20022;-81
2023/08/11 12:08:00;;;;;;;;;;;;;;;;;;6244047;28;20029;-82
2023/08/11 12:11:01;;;;;;;3.10;1.92;;;;;;;;;;6246058;28;19909;-80
2023/08/11 12:14:01;;;;;;;;;;;;;;;;;;6242830;28;20033;-81
2023/08/11 12:17:02;;;;;;;4.80;2.55;;;;;;;;;;6218050;28;19920;-80
2023/08/11 12:20:04;;;;;;;4.72;2.08;;;;;;;;;;6245949;28;20029;-80
2023/08/11 12:23:04;;;;;;;4.38;1.92;;;;;;;;;;6247687;28;20029;-81
2023/08/11 12:26:04;;;;;;;;;;;;;;;;;;6245367;28;20645;-82
2023/08/11 12:29:05;;;;;;;3.17;2.00;;;;;;;;;;6247766;28;19920;-81
2023/08/11 12:32:06;;;;;;;3.30;2.30;;;;;;;;;;6244534;28;20542;-80
2023/08/11 12:35:07;;;;;;;5.50;2.20;;;;;;;;;;6228047;28;20049;-81
2023/08/11 12:38:12;;;;;;;2.88;1.85;;;;;;;;;;6245303;28;20025;-81
2023/08/11 12:41:12;;;;;;;3.05;2.20;;;;;;;;;;6246324;28;20079;-80
2023/08/11 12:44:13;;;;;;;4.68;1.92;;;;;;;;;;6240781;28;20045;-81
2023/08/11 12:47:13;;;;;;;;;;;;;;;;;;6253423;28;20699;-81
2023/08/11 12:50:13;;;;;;;5.20;2.25;;;;;;;;;;6246157;28;20375;-80
2023/08/11 12:53:14;;;;;;;;;;;;;;;;;;6248012;28;20029;-81
2023/08/11 12:56:14;;;;;;;6.07;2.15;;;;;;;;;;6244589;28;19909;-81
2023/08/11 12:59:14;;;;;;;;;;;;;;;;;;6248768;28;20467;-82
2023/08/11 13:02:14;;;;;;;3.67;1.80;;;;;;;;;;6230928;28;19920;-81
2023/08/11 13:05:14;;;;;;;;;;;;;;;;;;6245532;28;20021;-81
2023/08/11 13:08:14;;;;;;;6.82;1.85;;;;;;;;;;6239817;28;19920;-81
2023/08/11 13:11:14;;;;;;;;;;;;;;;;;;6245148;28;20072;-80
2023/08/11 13:14:15;;;;;;;3.28;1.98;;;;;;;;;;6237822;28;19917;-81
2023/08/11 13:17:15;;;;;;;;;;;;;;;;;;6251277;28;20037;-81
2023/08/11 13:20:15;;;;;;;5.63;1.80;;;;;;;;;;6226849;28;19913;-81
2023/08/11 13:23:15;;;;;;;6.07;2.25;;;;;;;;;;6232026;28;20056;-81
2023/08/11 13:26:16;;;;;;;2.95;2.40;;;;;;;;;;6242720;28;20026;-81
2023/08/11 13:29:16;;;;;;;;;;;;;;;;;;6243995;28;20017;-81
2023/08/11 13:32:16;;;;;;;4.30;2.00;;;;;;;;;;6237695;28;19909;-80
2023/08/11 13:35:16;;;;;;;;;;;;;;;;;;6244122;28;20076;-80
2023/08/11 13:38:16;;;;;;;4.60;2.10;;;;;;;;;;6242637;28;19952;-81
2023/08/11 13:41:16;;;;;;;;;;;;;;;;;;6242651;28;20826;-81
2023/08/11 13:44:17;;;;;;;4.55;2.28;;;;;;;;;;6243552;28;19909;-82
2023/08/11 13:47:17;;;;;;;3.63;1.90;;;;;;;;;;6243711;28;20041;-81
2023/08/11 13:50:17;;;;;;;5.33;2.50;;;;;;;;;;6211452;28;20583;-81
2023/08/11 13:53:17;;;;;;;5.13;1.80;;;;;;;;;;6243895;28;20383;-81
2023/08/11 13:56:18;;;;;;;;;;;;;;;;;;6244089;28;20348;-81
2023/08/11 13:59:18;;;;;;;2.47;1.60;;;;;;;;;;6245491;28;19920;-81
2023/08/11 14:02:20;;;;;;;2.70;1.67;;;;;;;;;;6247466;28;20079;-82
2023/08/11 14:05:20;;;;;;;1.88;1.63;;;;;;;;;;6246385;28;20617;-82
2023/08/11 14:08:20;;;;;;;1.60;1.37;;;;;;;;;;6242890;28;20026;-77
2023/08/11 14:11:21;;;;;;;3.63;2.10;;;;;;;;;;6242507;28;20025;-77
2023/08/11 14:14:21;;;;;;;4.20;2.72;;;;;;;;;;6242592;28;20021;-77
2023/08/11 14:17:21;;;;;;;4.97;1.92;;;;;;;;;;6225560;28;20029;-77
2023/08/11 14:20:22;;;;;;;3.87;2.13;;;;;;;;;;6245587;28;20084;-77
2023/08/11 14:23:22;;;;;;;4.47;1.85;;;;;;;;;;6242690;28;20053;-77
2023/08/11 14:26:22;;;;;;;4.17;1.93;;;;;;;;;;6247639;28;20050;-77
2023/08/11 14:29:22;;;;;;;3.80;2.07;;;;;;;;;;6242577;28;20029;-76
2023/08/11 14:32:23;;;;;;;3.72;2.10;;;;;;;;;;6238319;28;20029;-77
2023/08/11 14:35:23;;;;;;;5.23;1.87;;;;;;;;;;6221526;28;20112;-77
2023/08/11 14:38:24;;;;;;;2.72;1.80;;;;;;;;;;6238348;28;20298;-76
2023/08/11 14:41:24;;;;;;;3.28;1.73;;;;;;;;;;6242003;28;20567;-77
2023/08/11 14:44:24;;;;;;;2.10;1.80;;;;;;;;;;6239222;28;20079;-77
2023/08/11 14:47:25;;;;;;;2.83;1.80;;;;;;;;;;6241609;28;20128;-77
2023/08/11 14:50:26;;;;;;;3.10;1.87;;;;;;;;;;6240897;28;20028;-77
2023/08/11 14:53:29;;;;;;;3.10;2.17;;;;;;;;;;6244380;28;20104;-76
2023/08/11 14:56:29;;;;;;;6.85;2.20;;;;;;;;;;6245971;28;20017;-75
2023/08/11 14:59:31;;;;;;;3.17;1.73;;;;;;;;;;6241671;28;20033;-77
2023/08/11 15:02:31;;;;;;;3.13;1.88;;;;;;;;;;6247321;28;20029;-76
2023/08/11 15:05:31;;;;;;;6.27;2.23;;;;;;;;;;6241190;28;20030;-76
2023/08/11 15:08:31;;;;;;;2.33;1.80;;;;;;;;;;6245217;28;20030;-75
2023/08/11 15:11:32;;;;;;;3.25;1.95;;;;;;;;;;6249090;28;20052;-76
2023/08/11 15:14:32;;;;;;;19.83;4.72;;;;;;;;;;6242778;28;20392;-77
2023/08/11 15:17:32;;;;;;;5.53;2.00;;;;;;;;;;6238734;28;20053;-76
2023/08/11 15:20:33;;;;;;;4.03;2.20;;;;;;;;;;6230106;28;20045;-76
2023/08/11 15:23:35;;;;;;;3.43;1.73;;;;;;;;;;6241727;28;20021;-76
2023/08/11 15:26:36;;;;;;;3.50;2.15;;;;;;;;;;6223745;28;20021;-76
2023/08/11 15:29:37;;;;;;;3.20;1.70;;;;;;;;;;6244397;28;20395;-75
2023/08/11 15:32:37;;;;;;;4.40;2.10;;;;;;;;;;6245397;28;20056;-76
2023/08/11 15:35:37;;;;;;;4.67;1.80;;;;;;;;;;6242478;28;20123;-77
2023/08/11 15:38:38;;;;;;;2.80;2.03;;;;;;;;;;6240998;28;20749;-77
2023/08/11 15:41:38;;;;;;;2.97;1.90;;;;;;;;;;6242343;28;20104;-76
2023/08/11 15:44:38;;;;;;;3.65;2.60;;;;;;;;;;6240989;28;20387;-76
2023/08/11 15:47:38;;;;;;;3.83;1.87;;;;;;;;;;6239631;28;20045;-76
2023/08/11 15:50:38;;;;;;;5.20;2.33;;;;;;;;;;6240240;28;20272;-76
2023/08/11 15:53:39;;;;;;;5.20;2.30;;;;;;;;;;6240881;28;20029;-76
2023/08/11 15:56:39;;;;;;;;;;;;;;;;;;6236726;28;20021;-76
2023/08/11 15:59:39;;;;;;;5.15;2.38;;;;;;;;;;6219558;28;19924;-76
2023/08/11 16:02:39;;;;;;;;;;;;;;;;;;6243681;28;20033;-77
2023/08/11 16:05:39;;;;;;;3.97;2.33;;;;;;;;;;6244856;28;19905;-76
2023/08/11 16:08:39;;;;;;;4.27;2.30;;;;;;;;;;6221738;28;20029;-77
2023/08/11 16:11:44;;;;;;;3.80;1.95;;;;;;;;;;6245005;28;20454;-77
2023/08/11 16:14:44;;;;;;;4.28;2.85;;;;;;;;;;6220649;28;20083;-77
2023/08/11 16:17:45;;;;;;;5.32;3.03;;;;;;;;;;6245885;28;20442;-77
2023/08/11 16:20:45;;;;;;;5.43;3.50;;;;;;;;;;6243968;28;20531;-77
2023/08/11 16:23:46;;;;;;;17.07;4.03;;;;;;;;;;6244738;28;20506;-77
2023/08/11 16:26:48;;;;;;;16.65;4.15;;;;;;;;;;6235785;28;20128;-77
2023/08/11 16:29:48;;;;;;;6.47;2.47;;;;;;;;;;6223343;28;20030;-77
2023/08/11 16:32:50;;;;;;;7.23;2.63;;;;;;;;;;6242174;28;20040;-77
2023/08/11 16:35:50;;;;;;;4.20;1.95;;;;;;;;;;6239310;28;20068;-77
2023/08/11 16:38:51;;;;;;;;;;;;;;;;;;6241041;28;20029;-77
2023/08/11 16:41:51;;;;;;;7.07;3.00;;;;;;;;;;6248628;28;19909;-77
2023/08/11 16:44:51;;;;;;;11.13;2.83;;;;;;;;;;6256340;28;20026;-77
2023/08/11 16:47:51;;;;;;;7.50;3.20;;;;;;;;;;6242349;28;20097;-81
2023/08/11 16:50:51;;;;;;;6.40;3.08;;;;;;;;;;6245766;28;20027;-81
2023/08/11 16:53:53;;;;;;;5.40;2.27;;;;;;;;;;6244456;28;20029;-81
2023/08/11 16:56:53;;;;;;;7.47;2.90;;;;;;;;;;6253537;28;20044;-81
2023/08/11 16:59:54;;;;;;;5.97;3.35;;;;;;;;;;6240660;28;20053;-82
2023/08/11 17:02:54;;;;;;;5.55;2.05;;;;;;;;;;6223469;28;20067;-81
2023/08/11 17:05:54;;;;;;;5.43;2.92;;;;;;;;;;6246448;28;20545;-82
2023/08/11 17:08:54;;;;;;;2.58;1.83;;;;;;;;;;6244174;28;20024;-81
2023/08/11 17:11:54;;;;;;;6.60;2.20;;;;;;;;;;6226431;28;20387;-81
2023/08/11 17:14:55;;;;;;;4.40;2.20;;;;;;;;;;6246426;28;20399;-80
2023/08/11 17:17:55;;;;;;;;;;;;;;;;;;6243089;28;20284;-81
2023/08/11 17:20:55;;;;;;;9.60;3.30;;;;;;;;;;6243222;28;19913;-81
2023/08/11 17:23:56;;;;;;;;;;;;;;;;;;6245409;28;20530;-80
2023/08/11 17:26:56;;;;;;;24.42;19.05;;;;;;;;;;6240484;28;19913;-80
2023/08/11 17:29:56;;;;;;;9.47;6.30;;;;;;;;;;6243367;28;20117;-80
2023/08/11 17:32:57;;;;;;;10.60;5.90;;;;;;;;;;6231039;28;20030;-81
2023/08/11 17:35:57;;;;;;;8.63;4.40;;;;;;;;;;6247611;28;20013;-81
2023/08/11 17:38:58;;;;;;;6.18;3.33;;;;;;;;;;6227752;28;20029;-80
2023/08/11 17:42:02;;;;;;;6.78;4.30;;;;;;;;;;6245360;28;20022;-81
2023/08/11 17:45:03;;;;;;;5.28;3.85;;;;;;;;;;6244279;28;20022;-81
2023/08/11 17:48:04;;;;;;;6.40;4.03;;;;;;;;;;6242972;28;20042;-80
2023/08/11 17:51:04;;;;;;;5.82;3.85;;;;;;;;;;6246734;28;20033;-81
2023/08/11 17:54:04;;;;;;;8.50;3.83;;;;;;;;;;6224193;28;20116;-80
2023/08/11 17:57:04;;;;;;;10.53;5.33;;;;;;;;;;6241293;28;20040;-77
2023/08/11 18:00:06;;;;;;;8.50;4.70;;;;;;;;;;6243002;28;20039;-77
2023/08/11 18:03:06;;;;;;;9.68;5.70;;;;;;;;;;6224228;28;20502;-77
2023/08/11 18:06:06;;;;;;;14.57;9.10;;;;;;;;;;6225114;28;20030;-77